createdAt,value
2022-11-30T00:00:55.248Z,7.63
2022-11-30T00:03:21.958Z,7.43
2022-11-30T00:05:48.595Z,6.95
2022-11-30T00:08:15.439Z,8.05
2022-11-30T00:10:42.599Z,7.90
2022-11-30T00:13:09.366Z,7.70
2022-11-30T00:15:36.922Z,7.50
2022-11-30T00:18:03.736Z,7.75
2022-11-30T00:20:30.286Z,7.55
2022-11-30T00:22:57.544Z,6.65
2022-11-30T00:25:24.710Z,7.47
2022-11-30T00:27:51.374Z,7.57
2022-11-30T00:30:18.039Z,7.45
2022-11-30T00:32:44.772Z,7.25
2022-11-30T00:35:11.335Z,6.75
2022-11-30T00:37:37.799Z,6.82
2022-11-30T00:40:06.218Z,7.13
2022-11-30T00:42:32.719Z,7.53
2022-11-30T00:44:59.209Z,7.32
2022-11-30T00:47:25.662Z,7.22
2022-11-30T00:49:52.176Z,7.57
2022-11-30T00:52:18.656Z,7.72
2022-11-30T00:54:45.433Z,8.25
2022-11-30T00:57:12.257Z,8.32
2022-11-30T00:59:38.718Z,8.10
2022-11-30T01:02:05.393Z,7.53
2022-11-30T01:04:31.884Z,8.45
2022-11-30T01:06:58.353Z,8.30
2022-11-30T01:09:24.975Z,8.95
2022-11-30T01:11:51.434Z,8.43
2022-11-30T01:14:18.011Z,7.57
2022-11-30T01:16:44.775Z,8.88
2022-11-30T01:19:11.542Z,8.90
2022-11-30T01:21:38.427Z,8.20
2022-11-30T01:24:05.296Z,8.52
2022-11-30T01:26:31.791Z,8.48
2022-11-30T01:28:58.481Z,8.95
2022-11-30T01:31:25.331Z,9.48
2022-11-30T01:33:55.730Z,9.63
2022-11-30T01:36:24.503Z,9.90
2022-11-30T01:38:56.058Z,10.25
2022-11-30T01:41:28.657Z,9.65
2022-11-30T01:43:57.788Z,9.40
2022-11-30T01:46:34.701Z,9.60
2022-11-30T01:49:11.466Z,10.00
2022-11-30T01:52:04.294Z,9.30
2022-11-30T01:54:38.953Z,9.80
2022-11-30T01:57:12.496Z,9.43
2022-11-30T01:59:39.321Z,9.05
2022-11-30T02:02:05.969Z,10.35
2022-11-30T02:04:34.970Z,8.82
2022-11-30T02:07:03.682Z,9.98
2022-11-30T02:09:31.847Z,9.73
2022-11-30T02:11:58.735Z,9.85
2022-11-30T02:14:33.832Z,9.90
2022-11-30T02:17:27.523Z,9.90
2022-11-30T02:20:14.732Z,9.73
2022-11-30T02:23:01.608Z,9.90
2022-11-30T02:26:04.856Z,9.80
2022-11-30T02:28:56.730Z,8.98
2022-11-30T02:31:37.574Z,9.80
2022-11-30T02:34:05.292Z,10.13
2022-11-30T02:36:32.359Z,9.43
2022-11-30T02:38:58.838Z,9.80
2022-11-30T02:41:25.323Z,9.82
2022-11-30T02:43:52.023Z,9.65
2022-11-30T02:46:27.178Z,8.57
2022-11-30T02:49:01.845Z,9.35
2022-11-30T02:51:30.148Z,8.75
2022-11-30T02:53:56.836Z,8.40
2022-11-30T02:56:23.759Z,9.02
2022-11-30T02:58:50.211Z,8.70
2022-11-30T03:01:17.049Z,8.40
2022-11-30T03:03:43.627Z,9.50
2022-11-30T03:06:10.105Z,9.65
2022-11-30T03:08:36.590Z,9.95
2022-11-30T03:11:04.229Z,9.55
2022-11-30T03:13:34.301Z,10.15
2022-11-30T03:16:12.077Z,9.70
2022-11-30T03:18:39.373Z,8.88
2022-11-30T03:21:10.649Z,9.48
2022-11-30T03:23:38.295Z,9.68
2022-11-30T03:26:05.660Z,9.68
2022-11-30T03:28:32.609Z,9.13
2022-11-30T03:30:59.212Z,8.73
2022-11-30T03:33:25.818Z,8.57
2022-11-30T03:36:12.576Z,8.68
2022-11-30T03:38:39.080Z,8.27
2022-11-30T03:41:07.947Z,8.90
2022-11-30T03:43:34.616Z,8.52
2022-11-30T03:46:01.320Z,9.43
2022-11-30T03:48:28.206Z,8.88
2022-11-30T03:50:54.702Z,8.82
2022-11-30T03:53:22.398Z,8.52
2022-11-30T03:56:00.078Z,9.15
2022-11-30T03:58:26.681Z,9.95
2022-11-30T04:01:12.523Z,9.50
2022-11-30T04:03:39.526Z,10.85
2022-11-30T04:06:07.120Z,10.65
2022-11-30T04:08:33.622Z,9.80
2022-11-30T04:11:01.431Z,10.10
2022-11-30T04:13:48.007Z,10.00
2022-11-30T04:16:27.972Z,10.00
2022-11-30T04:18:54.470Z,10.10
2022-11-30T04:21:20.969Z,10.13
2022-11-30T04:23:47.639Z,10.32
2022-11-30T04:26:15.742Z,9.68
2022-11-30T04:28:42.685Z,8.82
2022-11-30T04:31:09.968Z,9.23
2022-11-30T04:33:36.506Z,9.27
2022-11-30T04:36:05.823Z,8.90
2022-11-30T04:38:33.170Z,8.65
2022-11-30T04:40:59.783Z,8.75
2022-11-30T04:43:27.596Z,9.05
2022-11-30T04:45:54.173Z,8.43
2022-11-30T04:48:20.788Z,8.77
2022-11-30T04:50:47.335Z,8.55
2022-11-30T04:53:13.795Z,8.88
2022-11-30T04:55:40.327Z,8.02
2022-11-30T04:58:07.186Z,8.60
2022-11-30T05:00:34.609Z,9.35
2022-11-30T05:03:01.918Z,9.20
2022-11-30T05:05:28.585Z,9.13
2022-11-30T05:07:56.669Z,9.60
2022-11-30T05:10:23.747Z,8.88
2022-11-30T05:12:50.454Z,9.18
2022-11-30T05:15:17.362Z,8.48
2022-11-30T05:17:44.289Z,8.95
2022-11-30T05:20:11.244Z,9.38
2022-11-30T05:22:37.805Z,8.95
2022-11-30T05:25:04.693Z,8.65
2022-11-30T05:27:31.364Z,9.00
2022-11-30T05:30:01.108Z,8.23
2022-11-30T05:32:27.578Z,8.50
2022-11-30T05:34:54.431Z,7.78
2022-11-30T05:37:21.041Z,7.47
2022-11-30T05:39:47.631Z,7.20
2022-11-30T05:42:14.124Z,5.75
2022-11-30T05:44:40.624Z,5.65
2022-11-30T05:47:07.183Z,6.18
2022-11-30T05:49:33.746Z,6.15
2022-11-30T05:52:00.233Z,5.95
2022-11-30T05:54:26.691Z,6.18
2022-11-30T05:56:55.238Z,5.93
2022-11-30T05:59:22.833Z,6.32
2022-11-30T06:01:52.011Z,5.75
2022-11-30T06:04:18.739Z,6.38
2022-11-30T06:06:45.424Z,6.38
2022-11-30T06:09:11.915Z,6.93
2022-11-30T06:11:38.640Z,6.88
2022-11-30T06:14:05.181Z,6.55
2022-11-30T06:16:31.915Z,7.05
2022-11-30T06:18:58.463Z,6.78
2022-11-30T06:21:25.162Z,7.07
2022-11-30T06:23:52.451Z,6.47
2022-11-30T06:26:19.185Z,6.32
2022-11-30T06:28:48.395Z,6.40
2022-11-30T06:31:16.191Z,6.10
2022-11-30T06:33:43.253Z,5.93
2022-11-30T06:36:09.900Z,6.22
2022-11-30T06:38:36.404Z,5.68
2022-11-30T06:41:07.479Z,6.03
2022-11-30T06:43:35.512Z,5.80
2022-11-30T06:46:02.651Z,6.72
2022-11-30T06:48:29.815Z,6.20
2022-11-30T06:50:56.289Z,6.28
2022-11-30T06:53:22.814Z,6.63
2022-11-30T06:55:49.267Z,5.65
2022-11-30T06:58:15.803Z,6.70
2022-11-30T07:00:42.532Z,7.15
2022-11-30T07:03:11.071Z,7.60
2022-11-30T07:05:45.929Z,7.75
2022-11-30T07:08:13.904Z,7.65
2022-11-30T07:10:41.811Z,8.35
2022-11-30T07:13:13.235Z,7.07
2022-11-30T07:15:42.743Z,7.40
2022-11-30T07:18:12.393Z,8.20
2022-11-30T07:20:39.888Z,8.13
2022-11-30T07:23:06.715Z,7.82
2022-11-30T07:25:33.168Z,7.50
2022-11-30T07:28:27.699Z,8.07
2022-11-30T07:30:54.232Z,7.28
2022-11-30T07:33:20.672Z,7.18
2022-11-30T07:35:47.307Z,7.10
2022-11-30T07:38:13.758Z,6.35
2022-11-30T07:40:40.211Z,7.00
2022-11-30T07:43:06.707Z,6.50
2022-11-30T07:45:33.211Z,6.70
2022-11-30T07:48:00.079Z,6.35
2022-11-30T07:50:26.861Z,6.07
2022-11-30T07:52:53.416Z,5.53
2022-11-30T07:55:19.954Z,5.70
2022-11-30T07:57:46.499Z,5.80
2022-11-30T08:00:15.643Z,6.07
2022-11-30T08:05:19.884Z,6.32
2022-11-30T08:07:51.206Z,6.07
2022-11-30T08:10:18.595Z,5.95
2022-11-30T08:12:45.080Z,5.70
2022-11-30T08:15:19.738Z,5.30
2022-11-30T08:17:47.032Z,5.60
2022-11-30T08:20:13.582Z,5.47
2022-11-30T08:22:40.072Z,5.20
2022-11-30T08:25:07.160Z,5.97
2022-11-30T08:27:33.685Z,5.80
2022-11-30T08:30:00.157Z,6.20
2022-11-30T08:32:26.631Z,5.68
2022-11-30T08:34:53.076Z,5.28
2022-11-30T08:37:19.558Z,5.20
2022-11-30T08:39:52.064Z,5.85
2022-11-30T08:42:18.512Z,5.78
2022-11-30T08:44:44.964Z,6.22
2022-11-30T08:47:11.501Z,6.55
2022-11-30T08:49:38.062Z,5.40
2022-11-30T08:52:20.105Z,5.72
2022-11-30T08:54:47.803Z,6.38
2022-11-30T08:57:19.669Z,6.60
2022-11-30T08:59:46.464Z,5.72
2022-11-30T09:02:14.515Z,5.50
2022-11-30T09:04:41.372Z,6.00
2022-11-30T09:07:08.176Z,5.45
2022-11-30T09:09:35.276Z,5.50
2022-11-30T09:12:01.965Z,5.40
2022-11-30T09:14:28.507Z,5.20
2022-11-30T09:16:55.330Z,5.65
2022-11-30T09:19:21.892Z,5.40
2022-11-30T09:21:52.007Z,4.95
2022-11-30T09:24:19.591Z,6.37
2022-11-30T09:26:46.134Z,5.93
2022-11-30T09:29:15.216Z,5.80
2022-11-30T09:31:41.782Z,5.60
2022-11-30T09:34:11.062Z,6.50
2022-11-30T09:36:37.509Z,5.78
2022-11-30T09:39:04.222Z,6.13
2022-11-30T09:41:30.671Z,5.75
2022-11-30T09:44:15.609Z,6.03
2022-11-30T09:46:54.752Z,6.30
2022-11-30T09:49:43.787Z,6.20
2022-11-30T09:52:26.923Z,6.47
2022-11-30T09:54:54.698Z,6.05
2022-11-30T09:57:42.503Z,6.25
2022-11-30T10:00:23.488Z,5.95
2022-11-30T10:02:55.864Z,5.95
2022-11-30T10:05:25.970Z,5.88
2022-11-30T10:08:07.530Z,6.10
2022-11-30T10:10:43.998Z,5.60
2022-11-30T10:13:16.517Z,5.75
2022-11-30T10:15:57.891Z,5.40
2022-11-30T10:18:49.303Z,5.53
2022-11-30T10:21:34.520Z,5.88
2022-11-30T10:24:30.914Z,5.18
2022-11-30T10:27:39.784Z,4.60
2022-11-30T10:30:16.501Z,4.97
2022-11-30T10:32:45.768Z,4.78
2022-11-30T10:35:17.960Z,4.65
2022-11-30T10:37:45.754Z,5.00
2022-11-30T10:40:17.539Z,5.30
2022-11-30T10:42:52.498Z,4.70
2022-11-30T10:48:26.742Z,4.10
2022-11-30T10:50:55.715Z,4.20
2022-11-30T10:53:22.468Z,4.10
2022-11-30T10:56:01.332Z,4.15
2022-11-30T10:58:49.736Z,4.18
2022-11-30T11:01:37.621Z,3.70
2022-11-30T11:04:16.399Z,3.75
2022-11-30T11:06:45.903Z,3.33
2022-11-30T11:09:37.026Z,3.28
2022-11-30T11:12:18.355Z,3.92
2022-11-30T11:14:45.089Z,3.78
2022-11-30T11:17:17.639Z,4.80
2022-11-30T11:19:45.499Z,4.10
2022-11-30T11:22:16.793Z,3.83
2022-11-30T11:24:43.578Z,3.55
2022-11-30T11:27:28.227Z,3.80
2022-11-30T11:30:10.998Z,3.78
2022-11-30T11:32:37.580Z,3.65
2022-11-30T11:35:04.354Z,3.13
2022-11-30T11:37:35.609Z,2.97
2022-11-30T11:40:08.227Z,3.47
2022-11-30T11:42:54.746Z,2.90
2022-11-30T11:45:23.600Z,3.50
2022-11-30T11:47:58.839Z,3.63
2022-11-30T11:51:05.590Z,3.45
2022-11-30T11:53:43.888Z,3.72
2022-11-30T11:56:18.423Z,3.47
2022-11-30T11:59:12.955Z,3.20
2022-11-30T12:01:42.149Z,2.90
2022-11-30T12:04:45.843Z,3.00
2022-11-30T12:07:41.515Z,3.03
2022-11-30T12:13:21.808Z,3.05
2022-11-30T12:15:54.137Z,3.47
2022-11-30T12:18:29.111Z,3.10
2022-11-30T12:20:59.837Z,3.25
2022-11-30T12:24:03.735Z,2.92
2022-11-30T12:26:37.372Z,2.90
2022-11-30T12:29:16.784Z,3.20
2022-11-30T12:32:03.204Z,2.83
2022-11-30T12:35:10.448Z,2.83
2022-11-30T12:38:02.683Z,3.42
2022-11-30T12:40:51.790Z,3.25
2022-11-30T12:43:30.856Z,3.70
2022-11-30T12:46:12.460Z,3.30
2022-11-30T12:49:09.855Z,3.88
2022-11-30T12:51:49.363Z,2.97
2022-11-30T12:54:40.087Z,3.35
2022-11-30T12:57:14.865Z,3.45
2022-11-30T12:59:48.394Z,3.60
2022-11-30T13:02:39.982Z,3.40
2022-11-30T13:05:09.729Z,3.22
2022-11-30T13:07:48.336Z,3.40
2022-11-30T13:10:26.860Z,3.50
2022-11-30T13:12:54.367Z,3.67
2022-11-30T13:18:07.518Z,3.60
2022-11-30T13:20:40.245Z,3.83
2022-11-30T13:26:45.995Z,3.95
2022-11-30T13:29:46.817Z,3.88
2022-11-30T13:32:55.466Z,4.07
2022-11-30T13:35:28.253Z,4.15
2022-11-30T13:41:03.191Z,4.10
2022-11-30T13:43:33.949Z,4.00
2022-11-30T13:46:05.717Z,4.30
2022-11-30T13:48:38.950Z,4.35
2022-11-30T13:51:05.987Z,4.47
2022-11-30T13:53:36.084Z,4.80
2022-11-30T13:56:17.854Z,4.88
2022-11-30T13:59:21.450Z,4.60
2022-11-30T14:04:44.425Z,4.88
2022-11-30T14:07:34.699Z,4.95
2022-11-30T14:10:03.463Z,5.30
2022-11-30T14:12:33.017Z,5.18
2022-11-30T14:15:37.877Z,5.65
2022-11-30T14:18:30.952Z,5.05
2022-11-30T14:21:01.716Z,5.68
2022-11-30T14:23:57.757Z,5.75
2022-11-30T14:26:37.608Z,5.95
2022-11-30T14:29:13.994Z,6.10
2022-11-30T14:31:49.807Z,5.95
2022-11-30T14:34:31.430Z,6.20
2022-11-30T14:37:06.665Z,6.05
2022-11-30T14:39:35.704Z,5.50
2022-11-30T14:42:04.117Z,6.53
2022-11-30T14:44:35.684Z,6.10
2022-11-30T14:47:14.183Z,7.13
2022-11-30T14:49:49.269Z,7.30
2022-11-30T14:52:24.729Z,7.38
2022-11-30T14:55:26.570Z,7.30
2022-11-30T14:58:11.612Z,6.97
2022-11-30T15:00:42.677Z,7.15
2022-11-30T15:03:23.919Z,6.90
2022-11-30T15:05:55.600Z,7.30
2022-11-30T15:08:22.652Z,7.40
2022-11-30T15:10:49.619Z,7.20
2022-11-30T15:13:18.858Z,8.05
2022-11-30T15:15:53.859Z,8.13
2022-11-30T15:18:23.525Z,8.05
2022-11-30T15:20:54.877Z,9.05
2022-11-30T15:23:21.774Z,9.63
2022-11-30T15:26:04.762Z,10.65
2022-11-30T15:28:34.618Z,9.20
2022-11-30T15:31:03.277Z,9.15
2022-11-30T15:33:47.342Z,9.52
2022-11-30T15:36:28.242Z,9.00
2022-11-30T15:39:01.264Z,9.13
2022-11-30T15:41:31.078Z,9.30
2022-11-30T15:43:57.638Z,8.55
2022-11-30T15:46:46.163Z,9.75
2022-11-30T15:49:20.014Z,8.70
2022-11-30T15:51:58.381Z,8.35
2022-11-30T15:54:47.764Z,9.27
2022-11-30T15:57:15.750Z,9.30
2022-11-30T15:59:42.612Z,8.88
2022-11-30T16:02:28.650Z,9.20
2022-11-30T16:04:57.855Z,9.63
2022-11-30T16:07:25.948Z,9.90
2022-11-30T16:09:54.589Z,11.30
2022-11-30T16:12:27.198Z,11.00
2022-11-30T16:14:56.992Z,11.10
2022-11-30T16:17:26.597Z,11.23
2022-11-30T16:19:53.151Z,9.90
2022-11-30T16:22:19.688Z,10.70
2022-11-30T16:24:46.285Z,10.85
2022-11-30T16:27:17.255Z,11.88
2022-11-30T16:29:50.487Z,11.13
2022-11-30T16:32:19.046Z,11.10
2022-11-30T16:34:45.646Z,10.65
2022-11-30T16:37:15.297Z,10.15
2022-11-30T16:39:41.823Z,9.40
2022-11-30T16:42:13.407Z,10.02
2022-11-30T16:44:40.129Z,10.25
2022-11-30T16:47:06.883Z,10.82
2022-11-30T16:49:33.713Z,10.68
2022-11-30T16:52:00.402Z,10.73
2022-11-30T16:54:27.109Z,11.10
2022-11-30T16:56:53.747Z,11.30
2022-11-30T16:59:20.412Z,11.25
2022-11-30T17:01:48.458Z,11.90
2022-11-30T17:04:20.966Z,12.45
2022-11-30T17:06:51.706Z,11.07
2022-11-30T17:09:21.305Z,11.23
2022-11-30T17:11:49.479Z,11.82
2022-11-30T17:14:16.838Z,10.98
2022-11-30T17:16:43.615Z,11.55
2022-11-30T17:19:10.222Z,11.73
2022-11-30T17:21:38.314Z,11.50
2022-11-30T17:24:05.739Z,11.73
2022-11-30T17:26:32.639Z,11.80
2022-11-30T17:28:59.241Z,11.70
2022-11-30T17:31:35.187Z,11.85
2022-11-30T17:34:01.681Z,11.90
2022-11-30T17:36:28.298Z,12.20
2022-11-30T17:38:55.078Z,12.75
2022-11-30T17:41:21.573Z,11.68
2022-11-30T17:43:49.077Z,11.77
2022-11-30T17:46:17.240Z,11.52
2022-11-30T17:48:45.124Z,11.50
2022-11-30T17:51:12.312Z,11.07
2022-11-30T17:53:40.006Z,11.10
2022-11-30T17:56:08.742Z,11.45
2022-11-30T17:58:43.469Z,11.85
2022-11-30T18:01:22.751Z,10.63
2022-11-30T18:03:49.946Z,11.18
2022-11-30T18:06:16.518Z,11.27
2022-11-30T18:08:46.195Z,10.25
2022-11-30T18:11:20.916Z,11.18
2022-11-30T18:13:53.414Z,10.38
2022-11-30T18:16:22.772Z,10.32
2022-11-30T18:18:49.373Z,10.82
2022-11-30T18:21:18.205Z,9.63
2022-11-30T18:23:45.154Z,10.05
2022-11-30T18:26:14.299Z,9.70
2022-11-30T18:28:41.347Z,10.93
2022-11-30T18:31:08.177Z,12.10
2022-11-30T18:33:35.555Z,10.05
2022-11-30T18:36:04.681Z,9.88
2022-11-30T18:38:37.044Z,9.88
2022-11-30T18:41:04.548Z,8.93
2022-11-30T18:43:31.094Z,9.43
2022-11-30T18:46:09.157Z,9.55
2022-11-30T18:48:36.879Z,9.15
2022-11-30T18:51:21.008Z,8.27
2022-11-30T18:53:47.634Z,9.57
2022-11-30T18:56:18.900Z,9.13
2022-11-30T18:58:46.070Z,9.98
2022-11-30T19:01:17.561Z,8.93
2022-11-30T19:03:50.471Z,8.50
2022-11-30T19:06:17.091Z,9.20
2022-11-30T19:08:51.540Z,8.52
2022-11-30T19:11:18.291Z,9.27
2022-11-30T19:13:45.026Z,9.02
2022-11-30T19:16:16.215Z,8.77
2022-11-30T19:18:42.980Z,8.43
2022-11-30T19:21:18.059Z,8.73
2022-11-30T19:23:48.839Z,9.02
2022-11-30T19:26:17.366Z,8.15
2022-11-30T19:28:44.999Z,9.63
2022-11-30T19:31:15.371Z,9.15
2022-11-30T19:36:13.188Z,9.88
2022-11-30T19:38:39.678Z,10.25
2022-11-30T19:41:07.654Z,10.23
2022-11-30T19:43:34.675Z,10.77
2022-11-30T19:46:09.444Z,9.70
2022-11-30T19:48:44.016Z,9.07
2022-11-30T19:51:17.588Z,10.30
2022-11-30T19:53:44.968Z,10.82
2022-11-30T19:56:14.636Z,11.10
2022-11-30T19:58:42.678Z,11.70
2022-11-30T20:01:16.740Z,11.02
2022-11-30T20:03:56.954Z,11.93
2022-11-30T20:06:28.997Z,11.65
2022-11-30T20:08:56.217Z,12.50
2022-11-30T20:11:23.193Z,11.43
2022-11-30T20:13:49.747Z,11.82
2022-11-30T20:16:17.982Z,11.55
2022-11-30T20:18:50.249Z,11.75
2022-11-30T20:21:18.787Z,11.63
2022-11-30T20:23:46.152Z,11.68
2022-11-30T20:26:24.518Z,11.93
2022-11-30T20:28:51.862Z,12.57
2022-11-30T20:31:20.340Z,13.50
2022-11-30T20:33:47.489Z,15.25
2022-11-30T20:36:14.520Z,14.73
2022-11-30T20:38:41.733Z,13.55
2022-11-30T20:41:14.755Z,12.88
2022-11-30T20:43:42.213Z,13.23
2022-11-30T20:46:27.073Z,13.50
2022-11-30T20:48:54.147Z,14.25
2022-11-30T20:51:31.195Z,12.90
2022-11-30T20:54:03.308Z,13.38
2022-11-30T20:56:29.916Z,12.40
2022-11-30T20:58:56.619Z,12.57
2022-11-30T21:01:23.852Z,14.00
2022-11-30T21:03:50.382Z,14.07
2022-11-30T21:06:17.353Z,15.27
2022-11-30T21:08:44.175Z,14.55
2022-11-30T21:11:15.622Z,15.18
2022-11-30T21:13:43.574Z,15.30
2022-11-30T21:16:11.190Z,15.88
2022-11-30T21:18:39.537Z,17.52
2022-11-30T21:21:20.459Z,16.48
2022-11-30T21:23:47.816Z,18.20
2022-11-30T21:26:23.152Z,17.90
2022-11-30T21:28:50.863Z,18.70
2022-11-30T21:31:17.430Z,18.35
2022-11-30T21:33:50.923Z,19.95
2022-11-30T21:36:19.977Z,19.52
2022-11-30T21:38:46.889Z,19.70
2022-11-30T21:41:14.029Z,20.80
2022-11-30T21:43:41.300Z,20.45
2022-11-30T21:46:10.927Z,22.35
2022-11-30T21:48:38.658Z,20.17
2022-11-30T21:51:07.607Z,21.60
2022-11-30T21:53:39.543Z,21.92
2022-11-30T21:56:11.005Z,22.17
2022-11-30T21:58:37.714Z,23.88
2022-11-30T22:01:04.348Z,22.92
2022-11-30T22:03:31.396Z,24.52
2022-11-30T22:06:12.610Z,24.90
2022-11-30T22:08:41.009Z,24.83
2022-11-30T22:11:10.359Z,23.52
2022-11-30T22:13:37.501Z,25.75
2022-11-30T22:16:15.073Z,25.58
2022-11-30T22:18:42.741Z,25.65
2022-11-30T22:21:16.264Z,24.02
2022-11-30T22:23:44.673Z,24.65
2022-11-30T22:26:19.157Z,24.98
2022-11-30T22:28:52.127Z,25.02
2022-11-30T22:31:20.016Z,24.25
2022-11-30T22:33:47.203Z,25.23
2022-11-30T22:36:19.030Z,24.30
2022-11-30T22:38:47.094Z,24.63
2022-11-30T22:41:16.257Z,23.80
2022-11-30T22:43:43.870Z,22.45
2022-11-30T22:46:16.109Z,22.42
2022-11-30T22:48:43.690Z,22.15
2022-11-30T22:51:16.146Z,22.13
2022-11-30T22:53:43.291Z,22.90
2022-11-30T22:56:26.450Z,21.23
2022-11-30T22:58:55.387Z,20.80
2022-11-30T23:01:24.154Z,19.90
2022-11-30T23:03:51.944Z,19.08
2022-11-30T23:06:19.720Z,19.15
2022-11-30T23:08:47.553Z,18.92
2022-11-30T23:11:16.632Z,18.73
2022-11-30T23:13:43.536Z,17.55
2022-11-30T23:16:11.265Z,17.67
2022-11-30T23:18:45.946Z,18.08
2022-11-30T23:21:23.938Z,19.00
2022-11-30T23:23:50.567Z,17.83
2022-11-30T23:26:23.199Z,18.17
2022-11-30T23:28:51.529Z,17.48
2022-11-30T23:31:35.056Z,16.65
2022-11-30T23:34:04.610Z,17.60
2022-11-30T23:36:31.211Z,17.02
2022-11-30T23:39:03.063Z,17.00
2022-11-30T23:41:29.815Z,16.50
2022-11-30T23:43:56.750Z,15.95
2022-11-30T23:46:23.534Z,16.40
2022-11-30T23:48:50.164Z,15.98
2022-11-30T23:51:16.655Z,15.50
2022-11-30T23:53:43.329Z,16.67
2022-11-30T23:56:13.907Z,15.75
2022-11-30T23:58:40.586Z,15.65
